Time;durP1;ratioP1;P1;durP2;ratioP2;P2;SDS_P1;SDS_P2;PMS_P1;PMS_P2;Temp;Humidity;BMP_temperature;BMP_pressure;BME280_temperature;BME280_humidity;BME280_pressure;Samples;Min_cycle;Max_cycle;Signal;HPM_P1;HPM_P2
2022/01/14 00:01:10;;;;;;;24.35;12.23;;;4.80;99.90;;;;;;5092129;28;20665;-76
2022/01/14 00:03:35;;;;;;;20.27;10.55;;;4.80;99.90;;;;;;5092467;28;20024;-77
2022/01/14 00:06:01;;;;;;;25.55;10.45;;;4.80;99.90;;;;;;5092416;28;20024;-77
2022/01/14 00:08:27;;;;;;;20.45;11.35;;;4.90;99.90;;;;;;5091784;28;20052;-77
2022/01/14 00:10:53;;;;;;;18.75;10.45;;;4.90;99.90;;;;;;5092553;28;20020;-77
2022/01/14 00:16:04;;;;;;;22.52;11.98;;;4.80;99.90;;;;;;5092388;28;20036;-76
2022/01/14 00:18:30;;;;;;;24.63;12.82;;;4.70;99.90;;;;;;5092185;28;20031;-78
2022/01/14 00:20:56;;;;;;;28.58;13.30;;;4.70;99.90;;;;;;5091906;28;20120;-76
2022/01/14 00:23:29;;;;;;;19.80;11.57;;;4.70;99.90;;;;;;5091756;28;20488;-76
2022/01/14 00:34:25;;;;;;;27.20;10.23;;;4.80;99.90;;;;;;5069600;28;20486;-77
2022/01/14 00:36:50;;;;;;;19.40;10.63;;;4.90;99.90;;;;;;5087704;28;20116;-77
2022/01/14 00:39:16;;;;;;;26.58;12.48;;;4.90;99.90;;;;;;5092457;28;20027;-77
2022/01/14 00:41:43;;;;;;;23.25;12.48;;;4.90;99.90;;;;;;5092583;28;20020;-77
2022/01/14 00:44:12;;;;;;;24.27;12.90;;;4.90;99.90;;;;;;5092322;28;20048;-77
2022/01/14 00:46:40;;;;;;;19.40;10.02;;;4.90;99.90;;;;;;5091797;28;20063;-77
2022/01/14 00:49:07;;;;;;;22.50;10.65;;;4.80;99.90;;;;;;5092159;28;20095;-77
2022/01/14 00:51:32;;;;;;;19.25;11.48;;;4.80;99.90;;;;;;5091582;28;20030;-76
2022/01/14 00:53:58;;;;;;;22.40;11.38;;;4.80;99.90;;;;;;5091810;28;20021;-77
2022/01/14 01:01:34;;;;;;;23.40;10.50;;;4.70;99.90;;;;;;5095363;28;20051;-77
2022/01/14 01:04:00;;;;;;;19.23;10.75;;;4.70;99.90;;;;;;5095815;28;20024;-77
2022/01/14 01:06:26;;;;;;;20.65;10.27;;;4.70;99.90;;;;;;5095559;28;20035;-77
2022/01/14 01:08:55;;;;;;;21.73;10.45;;;4.60;99.90;;;;;;5095914;28;20024;-77
2022/01/14 01:11:26;;;;;;;20.92;10.48;;;4.60;99.90;;;;;;5093732;28;20029;-77
2022/01/14 01:14:01;;;;;;;15.63;9.00;;;4.70;99.90;;;;;;5095459;28;20056;-76
2022/01/14 01:16:27;;;;;;;18.67;9.02;;;4.70;99.90;;;;;;5095178;28;20476;-77
2022/01/14 01:18:53;;;;;;;13.35;8.05;;;4.70;99.90;;;;;;5095610;28;20111;-76
2022/01/14 01:21:19;;;;;;;18.65;9.15;;;4.70;99.90;;;;;;5095573;28;20024;-77
2022/01/14 01:23:44;;;;;;;20.30;8.90;;;4.80;99.90;;;;;;5095437;28;20020;-77
2022/01/14 01:26:16;;;;;;;17.65;9.35;;;4.80;99.90;;;;;;5095503;28;20032;-77
2022/01/14 01:28:58;;;;;;;19.38;9.15;;;4.80;99.90;;;;;;5095222;28;20036;-76
2022/01/14 01:31:35;;;;;;;15.35;8.20;;;4.80;99.90;;;;;;5094942;28;20027;-76
2022/01/14 01:34:18;;;;;;;17.58;9.00;;;4.80;99.90;;;;;;5095251;28;20392;-77
2022/01/14 01:36:46;;;;;;;16.85;9.18;;;4.80;99.90;;;;;;5095054;28;20024;-77
2022/01/14 01:39:18;;;;;;;16.63;8.60;;;4.80;99.90;;;;;;5094890;28;20052;-76
2022/01/14 01:41:49;;;;;;;15.35;9.02;;;4.70;99.90;;;;;;5095462;28;20024;-77
2022/01/14 01:44:17;;;;;;;18.83;9.43;;;4.70;99.90;;;;;;5095284;28;20066;-75
2022/01/14 01:46:46;;;;;;;16.08;8.77;;;4.70;99.90;;;;;;5094840;28;20480;-77
2022/01/14 01:49:14;;;;;;;22.33;9.23;;;4.70;99.90;;;;;;5096352;28;20020;-77
2022/01/14 01:51:43;;;;;;;16.63;8.38;;;4.70;99.90;;;;;;5092351;28;20031;-77
2022/01/14 01:54:09;;;;;;;17.45;9.20;;;4.70;99.90;;;;;;5095030;28;20031;-77
2022/01/14 01:56:35;;;;;;;19.42;8.82;;;4.60;99.90;;;;;;5094653;28;20028;-77
2022/01/14 01:59:00;;;;;;;18.65;10.05;;;4.60;99.90;;;;;;5094508;28;20430;-76
2022/01/14 02:01:26;;;;;;;20.70;10.13;;;4.60;99.90;;;;;;5093934;28;20090;-77
2022/01/14 02:03:56;;;;;;;13.30;8.10;;;4.60;99.90;;;;;;5094544;28;20073;-77
2022/01/14 02:06:23;;;;;;;14.20;7.60;;;4.50;99.90;;;;;;5094344;28;20090;-77
2022/01/14 02:08:49;;;;;;;13.40;7.72;;;4.50;99.90;;;;;;5094368;28;20040;-77
2022/01/14 02:11:15;;;;;;;14.30;7.38;;;4.50;99.90;;;;;;5092565;28;20036;-77
2022/01/14 02:13:42;;;;;;;12.45;6.72;;;4.40;99.90;;;;;;5083586;28;20066;-75
2022/01/14 02:27:13;;;;;;;14.02;7.78;;;4.50;99.90;;;;;;5071873;28;20500;-76
2022/01/14 02:29:40;;;;;;;13.55;7.15;;;4.50;99.90;;;;;;5083392;28;20047;-77
2022/01/14 02:32:06;;;;;;;13.73;7.43;;;4.50;99.90;;;;;;5094394;28;20530;-77
2022/01/14 02:34:32;;;;;;;18.25;8.38;;;4.50;99.90;;;;;;5092915;28;20472;-76
2022/01/14 02:36:58;;;;;;;13.60;7.95;;;4.40;99.90;;;;;;5092736;28;20020;-77
2022/01/14 02:39:23;;;;;;;13.98;8.02;;;4.40;99.90;;;;;;5093869;28;20027;-77
2022/01/14 02:41:51;;;;;;;14.00;7.03;;;4.30;99.90;;;;;;5094028;28;20032;-77
2022/01/14 02:44:25;;;;;;;11.45;6.97;;;4.30;99.90;;;;;;5093890;28;20109;-77
2022/01/14 02:46:55;;;;;;;13.00;6.43;;;4.30;99.90;;;;;;5092723;28;20471;-77
2022/01/14 02:49:28;;;;;;;10.75;6.85;;;4.40;99.90;;;;;;5093836;28;20035;-75
2022/01/14 02:51:55;;;;;;;10.27;6.22;;;4.40;99.90;;;;;;5093914;28;20016;-77
2022/01/14 02:54:24;;;;;;;11.05;6.03;;;4.50;99.90;;;;;;5093796;28;20055;-76
2022/01/14 02:56:52;;;;;;;10.00;5.30;;;4.50;99.90;;;;;;5093604;28;20016;-77
2022/01/14 02:59:20;;;;;;;9.73;5.68;;;4.60;99.90;;;;;;5093788;28;20027;-76
2022/01/14 03:01:49;;;;;;;8.90;5.47;;;4.70;99.90;;;;;;5093344;28;20024;-76
2022/01/14 03:04:18;;;;;;;11.07;6.03;;;4.80;99.90;;;;;;5092047;28;20031;-77
2022/01/14 03:06:44;;;;;;;8.82;5.75;;;4.80;99.90;;;;;;5093360;28;20028;-75
2022/01/14 03:09:10;;;;;;;9.95;5.88;;;4.80;99.90;;;;;;5093509;28;20021;-77
2022/01/14 03:11:39;;;;;;;12.20;5.47;;;4.80;99.90;;;;;;5093140;28;20095;-77
2022/01/14 03:14:05;;;;;;;9.32;5.55;;;4.80;99.90;;;;;;5092977;28;20119;-77
2022/01/14 03:16:39;;;;;;;11.95;6.45;;;4.90;99.90;;;;;;5092757;28;20107;-76
2022/01/14 03:19:08;;;;;;;9.77;5.75;;;4.90;99.90;;;;;;5092978;28;20028;-77
2022/01/14 03:21:40;;;;;;;14.25;7.00;;;4.90;99.90;;;;;;5093021;28;20095;-74
2022/01/14 03:26:46;;;;;;;13.52;7.95;;;4.90;99.90;;;;;;5092669;28;20036;-76
2022/01/14 03:29:13;;;;;;;13.82;7.45;;;4.90;99.90;;;;;;5091861;28;20046;-76
2022/01/14 03:31:39;;;;;;;15.38;7.85;;;4.90;99.90;;;;;;5093110;28;20104;-76
2022/01/14 03:34:05;;;;;;;17.50;7.90;;;4.90;99.90;;;;;;5093089;28;20055;-76
2022/01/14 03:36:31;;;;;;;18.38;8.75;;;4.90;99.90;;;;;;5093105;28;20472;-77
2022/01/14 03:38:57;;;;;;;16.52;8.55;;;4.90;99.90;;;;;;5093102;28;20487;-76
2022/01/14 03:41:23;;;;;;;19.73;8.88;;;4.90;99.90;;;;;;5093154;28;20028;-77
2022/01/14 03:43:49;;;;;;;14.10;7.53;;;4.80;99.90;;;;;;5092891;28;20103;-76
2022/01/14 03:46:15;;;;;;;13.20;7.68;;;4.80;99.90;;;;;;5092710;28;20027;-75
2022/01/14 03:48:40;;;;;;;17.17;8.30;;;4.70;99.90;;;;;;5092775;28;20032;-77
2022/01/14 03:51:06;;;;;;;16.38;7.47;;;4.50;99.90;;;;;;5091719;28;20028;-77
2022/01/14 03:53:33;;;;;;;19.90;8.52;;;4.50;99.90;;;;;;5092827;28;20379;-76
2022/01/14 03:55:59;;;;;;;13.48;8.05;;;4.40;99.90;;;;;;5091815;28;20031;-76
2022/01/14 03:58:24;;;;;;;13.65;7.18;;;4.40;99.90;;;;;;5093062;28;20028;-77
2022/01/14 04:00:50;;;;;;;14.77;8.65;;;4.30;99.90;;;;;;5092671;28;20214;-77
2022/01/14 04:03:16;;;;;;;11.80;7.55;;;4.30;99.90;;;;;;5092722;28;20028;-76
2022/01/14 04:05:41;;;;;;;16.80;8.00;;;4.30;99.90;;;;;;5092819;28;20027;-77
2022/01/14 04:08:07;;;;;;;12.80;6.80;;;4.30;99.90;;;;;;5092768;28;20086;-77
2022/01/14 04:10:33;;;;;;;16.60;9.98;;;4.30;99.90;;;;;;5092690;28;20051;-77
2022/01/14 04:13:03;;;;;;;13.55;7.80;;;4.30;99.90;;;;;;5091312;28;20027;-76
2022/01/14 04:15:37;;;;;;;15.50;7.40;;;4.30;99.90;;;;;;5092907;28;20388;-77
2022/01/14 04:18:21;;;;;;;14.35;7.45;;;4.30;99.90;;;;;;5092986;28;20052;-77
2022/01/14 04:20:49;;;;;;;16.50;8.35;;;4.30;99.90;;;;;;5092529;28;20095;-75
2022/01/14 04:23:18;;;;;;;13.38;7.68;;;4.30;99.90;;;;;;5092657;28;20056;-76
2022/01/14 04:25:44;;;;;;;13.48;7.13;;;4.30;99.90;;;;;;5092435;28;20013;-76
2022/01/14 04:28:11;;;;;;;11.93;6.97;;;4.30;99.90;;;;;;5092261;28;20488;-78
2022/01/14 04:30:37;;;;;;;14.65;8.20;;;4.30;99.90;;;;;;5092356;28;20036;-77
2022/01/14 04:33:04;;;;;;;12.93;6.95;;;4.30;99.90;;;;;;5092505;28;20028;-76
2022/01/14 04:35:31;;;;;;;14.02;7.28;;;4.30;99.90;;;;;;5094181;28;20072;-77
2022/01/14 04:37:57;;;;;;;19.42;10.48;;;4.40;99.90;;;;;;5096499;28;20017;-77
2022/01/14 04:40:23;;;;;;;17.30;9.25;;;4.40;99.90;;;;;;5096388;28;20513;-77
2022/01/14 04:42:49;;;;;;;16.50;9.73;;;4.40;99.90;;;;;;5096271;28;20036;-77
2022/01/14 04:48:02;;;;;;;15.30;9.43;;;4.30;99.90;;;;;;5096283;28;20040;-77
2022/01/14 04:50:27;;;;;;;12.73;8.27;;;4.30;99.90;;;;;;5095733;28;20016;-75
2022/01/14 04:52:54;;;;;;;15.73;8.00;;;4.30;99.90;;;;;;5095861;28;20024;-76
2022/01/14 04:55:22;;;;;;;13.18;7.80;;;4.30;99.90;;;;;;5095924;28;20114;-77
2022/01/14 04:57:48;;;;;;;10.98;6.78;;;4.20;99.90;;;;;;5096190;28;20043;-77
2022/01/14 05:00:17;;;;;;;11.25;7.03;;;4.20;99.90;;;;;;5095881;28;20025;-76
2022/01/14 05:02:43;;;;;;;14.27;7.07;;;4.10;99.90;;;;;;5096068;28;20488;-77
2022/01/14 05:05:10;;;;;;;12.65;7.53;;;4.10;99.90;;;;;;5096140;28;20031;-77
2022/01/14 05:07:37;;;;;;;10.82;7.00;;;4.00;99.90;;;;;;5095545;28;20473;-77
2022/01/14 05:12:32;;;;;;;15.75;7.85;;;4.00;99.90;;;;;;5095924;28;20071;-77
2022/01/14 05:14:58;;;;;;;11.15;6.10;;;4.00;99.90;;;;;;5095491;28;20020;-78
2022/01/14 05:17:24;;;;;;;10.88;7.18;;;4.10;99.90;;;;;;5095814;28;20112;-77
2022/01/14 05:19:49;;;;;;;10.02;6.50;;;4.10;99.90;;;;;;5095831;28;20020;-76
2022/01/14 05:22:17;;;;;;;14.73;8.82;;;4.20;99.90;;;;;;5095378;28;20028;-76
2022/01/14 05:24:43;;;;;;;17.35;9.25;;;4.20;99.90;;;;;;5095381;28;20039;-78
2022/01/14 05:27:09;;;;;;;14.25;8.18;;;4.20;99.90;;;;;;5093666;28;20441;-77
2022/01/14 05:29:35;;;;;;;15.55;9.00;;;4.20;99.90;;;;;;5095094;28;20028;-77
2022/01/14 05:32:09;;;;;;;16.42;9.15;;;4.20;99.90;;;;;;5095050;28;20108;-76
2022/01/14 05:34:36;;;;;;;14.73;8.77;;;4.20;99.90;;;;;;5094918;28;20067;-77
2022/01/14 05:37:03;;;;;;;15.73;9.00;;;4.20;99.90;;;;;;5095338;28;20024;-77
2022/01/14 05:39:30;;;;;;;18.35;9.32;;;4.10;99.90;;;;;;5095085;28;20020;-76
2022/01/14 05:41:57;;;;;;;16.98;9.93;;;4.10;99.90;;;;;;5093899;28;20031;-76
2022/01/14 05:44:23;;;;;;;15.38;9.27;;;4.10;99.90;;;;;;5095080;28;20055;-76
2022/01/14 05:46:50;;;;;;;11.25;7.45;;;4.10;99.90;;;;;;5093491;28;20060;-77
2022/01/14 05:49:16;;;;;;;9.52;6.35;;;4.10;99.90;;;;;;5095100;28;20042;-77
2022/01/14 05:51:42;;;;;;;15.68;6.20;;;4.10;99.90;;;;;;5094833;28;20020;-77
2022/01/14 05:54:07;;;;;;;10.90;6.28;;;4.00;99.90;;;;;;5094616;28;20585;-77
2022/01/14 05:56:33;;;;;;;11.35;6.95;;;3.90;99.90;;;;;;5094624;28;20028;-76
2022/01/14 05:58:59;;;;;;;12.57;6.15;;;3.80;99.90;;;;;;5095042;28;20032;-77
2022/01/14 06:01:24;;;;;;;11.95;6.97;;;3.70;99.90;;;;;;5096465;28;20028;-77
2022/01/14 06:03:50;;;;;;;10.07;6.28;;;3.70;99.90;;;;;;5094562;28;20028;-77
2022/01/14 06:06:16;;;;;;;10.80;6.90;;;3.70;99.90;;;;;;5093652;28;20099;-79
2022/01/14 06:08:41;;;;;;;10.90;7.10;;;3.70;99.90;;;;;;5097028;28;20098;-77
2022/01/14 06:11:08;;;;;;;12.10;7.47;;;3.70;99.90;;;;;;5114836;28;20015;-78
2022/01/14 06:13:33;;;;;;;16.17;8.70;;;3.70;99.90;;;;;;5109259;28;20194;-77
2022/01/14 06:15:59;;;;;;;20.45;10.88;;;3.70;99.90;;;;;;5094268;28;20527;-76
2022/01/14 06:18:25;;;;;;;27.08;12.25;;;3.80;99.90;;;;;;5094050;28;20039;-73
2022/01/14 06:20:50;;;;;;;26.38;12.85;;;3.80;99.90;;;;;;5093325;28;20036;-76
2022/01/14 06:23:16;;;;;;;23.95;11.05;;;3.80;99.90;;;;;;5093220;28;20391;-76
2022/01/14 06:25:42;;;;;;;19.83;9.18;;;3.90;99.90;;;;;;5093060;28;20031;-76
2022/01/14 06:28:07;;;;;;;19.10;10.18;;;3.90;99.90;;;;;;5093763;28;20032;-76
2022/01/14 06:30:33;;;;;;;15.63;9.18;;;3.90;99.90;;;;;;5093920;28;20024;-78
2022/01/14 06:32:59;;;;;;;17.85;10.02;;;3.90;99.90;;;;;;5091964;28;20028;-77
2022/01/14 06:35:25;;;;;;;18.50;8.40;;;4.00;99.90;;;;;;5092629;28;20024;-76
2022/01/14 06:37:50;;;;;;;19.13;9.68;;;4.00;99.90;;;;;;5104117;28;20036;-76
2022/01/14 06:40:16;;;;;;;34.17;9.07;;;3.90;99.90;;;;;;5114534;28;20027;-75
2022/01/14 06:42:42;;;;;;;13.05;7.80;;;3.80;99.90;;;;;;5114604;28;20061;-76
2022/01/14 06:45:09;;;;;;;13.90;8.50;;;3.80;99.90;;;;;;5098460;28;20044;-76
2022/01/14 06:47:35;;;;;;;25.67;6.68;;;3.80;99.90;;;;;;5093436;28;20071;-80
2022/01/14 06:50:00;;;;;;;13.80;6.65;;;3.80;99.90;;;;;;5092309;28;20060;-80
2022/01/14 06:52:26;;;;;;;10.95;7.10;;;3.80;99.90;;;;;;5092749;28;20032;-78
2022/01/14 06:54:52;;;;;;;14.15;7.13;;;3.80;99.90;;;;;;5091512;28;20507;-78
2022/01/14 06:57:19;;;;;;;18.50;6.90;;;3.90;99.90;;;;;;5092261;28;20020;-79
2022/01/14 06:59:44;;;;;;;15.00;7.05;;;3.90;99.90;;;;;;5091638;28;20333;-78
2022/01/14 07:02:10;;;;;;;15.15;7.93;;;4.00;99.90;;;;;;5092206;28;20024;-79
2022/01/14 07:04:36;;;;;;;11.00;7.13;;;4.00;99.90;;;;;;5092996;28;20030;-79
2022/01/14 07:07:03;;;;;;;14.98;6.93;;;4.00;99.90;;;;;;5092814;28;20032;-78
2022/01/14 07:09:56;;;;;;;24.27;15.65;;;4.00;99.90;;;;;;5091279;28;20077;-78
2022/01/14 07:12:18;;;;;;;16.85;9.77;;;4.10;99.90;;;;;;5091946;28;20119;-77
2022/01/14 07:14:43;;;;;;;13.75;8.98;;;4.40;99.90;;;;;;5092873;28;20427;-79
2022/01/14 07:17:09;;;;;;;13.68;8.13;;;4.70;99.90;;;;;;5092483;28;20020;-78
2022/01/14 07:19:35;;;;;;;31.05;9.20;;;5.10;99.90;;;;;;5093148;28;20077;-78
2022/01/14 07:22:00;;;;;;;18.00;8.75;;;5.50;99.90;;;;;;5092994;28;20099;-77
2022/01/14 07:24:26;;;;;;;25.23;8.27;;;5.80;99.90;;;;;;5092005;28;20028;-77
2022/01/14 07:26:51;;;;;;;27.88;8.20;;;6.20;99.90;;;;;;5092341;28;20493;-76
2022/01/14 07:29:17;;;;;;;20.67;9.50;;;6.50;99.90;;;;;;5092765;28;20012;-77
2022/01/14 07:31:43;;;;;;;17.52;7.82;;;6.80;99.90;;;;;;5091357;28;20016;-78
2022/01/14 07:34:09;;;;;;;28.08;8.93;;;7.20;99.90;;;;;;5089827;28;20376;-76
2022/01/14 07:36:34;;;;;;;19.73;8.50;;;7.60;99.90;;;;;;5092318;28;20804;-78
2022/01/14 07:39:00;;;;;;;35.55;7.10;;;8.00;99.90;;;;;;5095982;28;20032;-78
2022/01/14 07:41:26;;;;;;;14.23;6.50;;;8.40;99.90;;;;;;5092504;28;20471;-78
2022/01/14 07:43:52;;;;;;;15.15;6.82;;;8.70;99.90;;;;;;5092487;28;20039;-79
2022/01/14 07:46:18;;;;;;;23.10;8.55;;;9.00;99.90;;;;;;5090016;28;20506;-79
2022/01/14 07:48:43;;;;;;;21.48;8.98;;;9.40;99.90;;;;;;5090343;28;20043;-77
2022/01/14 07:51:09;;;;;;;48.63;12.93;;;9.70;99.90;;;;;;5091465;28;20020;-80
2022/01/14 07:53:36;;;;;;;33.78;12.27;;;10.20;99.90;;;;;;5092502;28;20046;-78
2022/01/14 07:56:06;;;;;;;24.60;10.15;;;10.50;99.90;;;;;;5092226;28;20016;-81
2022/01/14 07:58:33;;;;;;;38.30;12.73;;;10.80;99.90;;;;;;5091776;28;20024;-79
2022/01/14 08:00:59;;;;;;;20.13;7.60;;;11.20;99.90;;;;;;5092004;28;20137;-79
2022/01/14 08:03:25;;;;;;;23.70;8.85;;;11.50;99.90;;;;;;5092844;28;20440;-81
2022/01/14 08:05:53;;;;;;;21.35;8.45;;;11.90;99.90;;;;;;5092318;28;20051;-79
2022/01/14 08:08:19;;;;;;;19.42;8.65;;;12.00;99.90;;;;;;5090133;28;20060;-77
2022/01/14 08:10:44;;;;;;;25.27;8.63;;;12.10;99.90;;;;;;5091406;28;20056;-75
2022/01/14 08:13:10;;;;;;;25.15;8.93;;;12.40;99.70;;;;;;5090208;28;20111;-77
2022/01/14 08:15:36;;;;;;;31.88;10.57;;;12.80;98.90;;;;;;5092219;28;20024;-77
2022/01/14 08:18:02;;;;;;;24.00;8.57;;;13.10;98.10;;;;;;5092516;28;20099;-76
2022/01/14 08:20:28;;;;;;;27.58;9.57;;;13.10;98.00;;;;;;5092341;28;20028;-77
2022/01/14 08:22:54;;;;;;;41.83;13.90;;;13.30;97.70;;;;;;5091836;28;20085;-78
2022/01/14 08:25:20;;;;;;;21.50;9.93;;;13.60;96.90;;;;;;5091894;28;20031;-79
2022/01/14 08:27:45;;;;;;;22.27;12.48;;;13.70;96.80;;;;;;5092498;28;20028;-78
2022/01/14 08:30:12;;;;;;;30.50;11.65;;;14.20;96.40;;;;;;5091987;28;20345;-78
2022/01/14 08:32:37;;;;;;;19.90;8.23;;;14.50;95.70;;;;;;5097136;28;20031;-79
2022/01/14 08:35:04;;;;;;;20.70;8.70;;;14.40;94.90;;;;;;5112205;28;20023;-78
2022/01/14 08:37:30;;;;;;;20.08;7.32;;;14.20;95.20;;;;;;5112492;28;20430;-78
2022/01/14 08:39:55;;;;;;;29.75;8.15;;;14.50;94.60;;;;;;5091947;28;20024;-79
2022/01/14 08:42:21;;;;;;;26.45;8.48;;;14.90;94.10;;;;;;5091771;28;20103;-80
2022/01/14 08:44:47;;;;;;;28.55;8.35;;;15.50;93.20;;;;;;5091450;28;20642;-79
2022/01/14 08:47:13;;;;;;;19.88;8.60;;;16.10;92.50;;;;;;5091734;28;20103;-79
2022/01/14 08:49:41;;;;;;;22.33;10.25;;;17.00;90.80;;;;;;5087445;28;20028;-73
2022/01/14 08:52:08;;;;;;;28.38;10.85;;;17.30;90.30;;;;;;5111184;28;20031;-79
2022/01/14 08:54:34;;;;;;;22.85;9.68;;;17.10;90.00;;;;;;5091574;28;20487;-78
2022/01/14 08:57:03;;;;;;;16.00;8.07;;;17.40;88.80;;;;;;5097848;28;20073;-79
2022/01/14 08:59:30;;;;;;;19.13;8.95;;;17.60;87.60;;;;;;5111976;28;20387;-79
2022/01/14 09:01:57;;;;;;;17.40;8.23;;;18.30;86.60;;;;;;5097912;28;20028;-78
2022/01/14 09:04:22;;;;;;;24.73;9.13;;;19.10;84.60;;;;;;5106064;28;20032;-80
2022/01/14 09:06:48;;;;;;;15.88;9.50;;;19.50;82.50;;;;;;5108886;28;20077;-81
2022/01/14 09:09:14;;;;;;;17.08;7.88;;;19.20;80.20;;;;;;5108512;28;20084;-79
2022/01/14 09:11:40;;;;;;;23.33;11.07;;;19.20;81.00;;;;;;5099201;28;20490;-79
2022/01/14 09:14:06;;;;;;;15.45;7.68;;;19.40;80.30;;;;;;5091291;28;20027;-79
2022/01/14 09:16:35;;;;;;;20.63;6.97;;;19.90;78.20;;;;;;5089445;28;20020;-78
2022/01/14 09:19:02;;;;;;;16.98;7.95;;;20.00;78.50;;;;;;5090871;28;20047;-79
2022/01/14 09:21:27;;;;;;;15.07;6.75;;;19.70;77.60;;;;;;5091934;28;20031;-79
2022/01/14 09:24:14;;;;;;;22.67;13.63;;;19.20;78.50;;;;;;5095200;28;20028;-80
2022/01/14 09:26:40;;;;;;;10.70;5.72;;;18.80;79.10;;;;;;5102633;28;20131;-78
2022/01/14 09:29:07;;;;;;;15.75;6.05;;;18.30;78.90;;;;;;5094726;28;20366;-79
2022/01/14 09:31:34;;;;;;;12.25;6.35;;;17.90;78.90;;;;;;5094903;28;20016;-80
2022/01/14 09:34:00;;;;;;;14.05;6.07;;;17.70;79.80;;;;;;5094191;28;20016;-79
2022/01/14 09:36:26;;;;;;;10.43;6.00;;;17.60;80.10;;;;;;5113161;28;20205;-79
2022/01/14 09:38:52;;;;;;;18.08;6.07;;;17.50;80.00;;;;;;5094451;28;20019;-78
2022/01/14 09:41:18;;;;;;;19.65;7.47;;;17.40;80.10;;;;;;5094227;28;20056;-78
2022/01/14 09:43:44;;;;;;;13.25;7.45;;;17.30;80.70;;;;;;5094714;28;20027;-79
2022/01/14 09:46:11;;;;;;;16.73;7.55;;;17.20;81.10;;;;;;5094333;28;20043;-79
2022/01/14 09:48:38;;;;;;;28.33;8.57;;;17.20;81.80;;;;;;5100429;28;20522;-78
2022/01/14 09:51:04;;;;;;;34.88;10.95;;;17.10;82.80;;;;;;5114776;28;20020;-80
2022/01/14 09:53:31;;;;;;;82.00;14.48;;;17.10;84.60;;;;;;5114366;28;20463;-80
2022/01/14 09:55:58;;;;;;;46.47;9.88;;;17.10;85.80;;;;;;5114281;28;20104;-80
2022/01/14 09:58:29;;;;;;;39.25;9.65;;;17.00;85.80;;;;;;5107858;28;20019;-78
2022/01/14 10:01:05;;;;;;;;;;;16.90;85.50;;;;;;5094636;28;20024;-79
2022/01/14 10:03:31;;;;;;;34.95;8.77;;;16.90;86.00;;;;;;5094014;28;20276;-80
2022/01/14 10:05:57;;;;;;;49.38;10.38;;;16.90;86.10;;;;;;5098666;28;20031;-79
2022/01/14 10:08:28;;;;;;;26.38;8.98;;;17.00;86.20;;;;;;5094245;28;20028;-78
2022/01/14 10:10:57;;;;;;;34.47;9.18;;;17.00;85.90;;;;;;5093528;28;20020;-80
2022/01/14 10:13:34;;;;;;;29.92;9.30;;;17.00;85.70;;;;;;5094624;28;20484;-78
2022/01/14 10:16:05;;;;;;;25.05;9.32;;;17.00;85.40;;;;;;5094410;28;20052;-79
2022/01/14 10:18:33;;;;;;;;;;;16.90;85.90;;;;;;5113386;28;20024;-78
2022/01/14 10:21:10;;;;;;;24.50;8.00;;;17.10;85.40;;;;;;5098558;28;19939;-78
2022/01/14 10:23:51;;;;;;;30.38;9.70;;;17.40;85.10;;;;;;5092333;28;20023;-79
2022/01/14 10:26:18;;;;;;;47.25;9.45;;;17.40;86.20;;;;;;5093473;28;20420;-80
2022/01/14 10:29:01;;;;;;;17.98;9.20;;;17.50;86.30;;;;;;5093737;28;20039;-80
2022/01/14 10:31:34;;;;;;;14.35;7.88;;;17.40;86.30;;;;;;5094142;28;20050;-80
2022/01/14 10:34:27;;;;;;;29.67;8.80;;;17.40;86.80;;;;;;5092378;28;20028;-81
2022/01/14 10:37:12;;;;;;;29.83;9.10;;;17.40;87.20;;;;;;5072979;28;20110;-79
2022/01/14 10:39:49;;;;;;;32.05;8.50;;;17.50;87.40;;;;;;5093632;28;20112;-82
2022/01/14 10:42:29;;;;;;;25.50;8.90;;;17.60;87.50;;;;;;5093664;28;20095;-82
2022/01/14 10:45:09;;;;;;;19.33;8.35;;;17.80;88.30;;;;;;5093721;28;20051;-82
2022/01/14 10:47:34;;;;;;;26.92;9.32;;;18.00;88.60;;;;;;5093263;28;20032;-79
2022/01/14 10:50:00;;;;;;;19.35;9.05;;;18.10;88.30;;;;;;5092584;28;20027;-79
2022/01/14 10:52:27;;;;;;;25.65;9.35;;;18.30;87.90;;;;;;5092919;28;20039;-80
2022/01/14 10:54:58;;;;;;;24.92;9.27;;;18.40;88.10;;;;;;5093565;28;20062;-80
2022/01/14 10:57:26;;;;;;;20.23;9.77;;;18.30;87.80;;;;;;5091831;28;20031;-80
2022/01/14 11:00:15;;;;;;;28.88;9.70;;;18.40;88.40;;;;;;5092512;28;20019;-81
2022/01/14 11:02:45;;;;;;;21.27;9.25;;;18.60;88.40;;;;;;5092751;28;20024;-81
2022/01/14 11:05:19;;;;;;;36.25;9.32;;;18.70;88.30;;;;;;5092879;28;20032;-79
2022/01/14 11:07:47;;;;;;;26.48;10.55;;;18.80;88.30;;;;;;5092868;28;20384;-79
2022/01/14 11:10:31;;;;;;;28.83;10.93;;;18.70;89.60;;;;;;5092692;28;20153;-79
2022/01/14 11:12:58;;;;;;;20.83;8.88;;;18.70;87.80;;;;;;5092024;28;20024;-79
2022/01/14 11:15:25;;;;;;;21.05;11.00;;;18.80;86.50;;;;;;5091138;28;20085;-78
2022/01/14 11:17:55;;;;;;;29.50;11.25;;;18.90;87.30;;;;;;5092327;28;20040;-79
2022/01/14 11:20:32;;;;;;;21.33;10.35;;;18.90;87.60;;;;;;5091149;28;20020;-80
2022/01/14 11:23:16;;;;;;;22.70;9.32;;;19.00;88.20;;;;;;5092523;28;20063;-79
2022/01/14 11:26:07;;;;;;;33.58;10.60;;;19.00;88.10;;;;;;5092238;28;20027;-76
2022/01/14 11:28:39;;;;;;;31.95;9.57;;;19.00;88.50;;;;;;5092678;28;20043;-78
2022/01/14 11:31:38;;;;;;;25.05;9.73;;;19.00;88.70;;;;;;5092608;28;20377;-79
2022/01/14 11:34:07;;;;;;;20.13;9.43;;;19.10;87.40;;;;;;5069313;28;20383;-77
2022/01/14 11:36:51;;;;;;;30.85;11.75;;;19.20;86.90;;;;;;5092494;28;20101;-77
2022/01/14 11:39:21;;;;;;;23.27;10.30;;;19.30;89.00;;;;;;5100994;28;20038;-79
2022/01/14 11:41:53;;;;;;;23.10;10.57;;;19.20;90.30;;;;;;5111990;28;20015;-79
2022/01/14 11:44:58;;;;;;;19.70;10.05;;;19.20;90.70;;;;;;5109866;28;21427;-79
2022/01/14 11:47:24;;;;;;;16.27;9.23;;;19.10;90.60;;;;;;5112275;28;20081;-79
2022/01/14 11:49:51;;;;;;;20.45;8.75;;;19.00;90.90;;;;;;5112017;28;20016;-79
2022/01/14 11:52:33;;;;;;;15.65;8.55;;;18.90;90.90;;;;;;5092482;28;20084;-78
2022/01/14 11:54:59;;;;;;;21.88;9.38;;;18.70;91.00;;;;;;5091638;28;20099;-79
2022/01/14 11:57:45;;;;;;;23.52;9.60;;;18.50;91.10;;;;;;5091369;28;20107;-79
2022/01/14 12:00:41;;;;;;;22.65;9.82;;;18.10;91.50;;;;;;5091650;28;20055;-79
2022/01/14 12:03:15;;;;;;;15.63;10.10;;;17.70;92.30;;;;;;5091864;28;20403;-78
2022/01/14 12:05:50;;;;;;;16.90;9.40;;;17.30;92.70;;;;;;5092013;28;20350;-76
2022/01/14 12:08:19;;;;;;;19.65;11.05;;;16.90;93.10;;;;;;5091043;28;20085;-79
2022/01/14 12:10:49;;;;;;;25.58;9.98;;;16.60;93.40;;;;;;5089641;28;20023;-80
2022/01/14 12:13:25;;;;;;;22.73;10.13;;;16.40;93.80;;;;;;5091275;28;20113;-79
2022/01/14 12:16:04;;;;;;;21.75;10.00;;;16.30;93.90;;;;;;5091312;28;20039;-76
2022/01/14 12:18:59;;;;;;;21.30;10.10;;;16.10;94.30;;;;;;5090730;28;20022;-78
2022/01/14 12:21:43;;;;;;;16.00;8.98;;;15.80;94.50;;;;;;5071955;28;20024;-77
2022/01/14 12:24:30;;;;;;;19.70;11.02;;;15.40;95.10;;;;;;5091520;28;20024;-77
2022/01/14 12:27:00;;;;;;;18.52;10.25;;;15.10;95.80;;;;;;5095527;28;20049;-77
2022/01/14 12:29:35;;;;;;;18.77;11.13;;;14.70;96.30;;;;;;5095423;28;20429;-76
2022/01/14 12:32:04;;;;;;;22.50;11.27;;;14.50;96.90;;;;;;5093166;28;20552;-78
2022/01/14 12:34:31;;;;;;;22.25;10.77;;;14.20;97.50;;;;;;5091355;28;20090;-77
2022/01/14 12:36:57;;;;;;;22.40;10.45;;;14.00;97.80;;;;;;5091992;28;20030;-78
2022/01/14 12:39:23;;;;;;;17.10;10.23;;;13.80;98.40;;;;;;5091599;28;20531;-77
2022/01/14 12:41:54;;;;;;;21.65;9.95;;;13.60;98.90;;;;;;5090563;28;20028;-77
2022/01/14 12:44:24;;;;;;;19.95;10.43;;;13.40;99.20;;;;;;5090316;28;20419;-77
2022/01/14 12:47:09;;;;;;;17.60;10.52;;;13.30;99.40;;;;;;5089854;28;20097;-77
2022/01/14 12:49:40;;;;;;;21.45;10.95;;;13.10;99.90;;;;;;5090904;28;20036;-77
2022/01/14 12:52:08;;;;;;;20.42;10.55;;;13.00;99.90;;;;;;5091736;28;20021;-78
2022/01/14 12:54:36;;;;;;;17.20;10.30;;;13.00;99.90;;;;;;5090991;28;20048;-79
2022/01/14 12:57:03;;;;;;;22.85;11.10;;;13.00;99.90;;;;;;5093155;28;20043;-79
2022/01/14 12:59:37;;;;;;;23.98;10.13;;;12.90;99.90;;;;;;5093876;28;20055;-77
2022/01/14 13:02:05;;;;;;;19.27;11.38;;;12.80;99.90;;;;;;5094346;28;20536;-78
2022/01/14 13:04:31;;;;;;;20.15;10.82;;;12.80;99.90;;;;;;5095192;28;20012;-78
2022/01/14 13:07:01;;;;;;;18.02;10.32;;;12.70;99.90;;;;;;5095228;28;20049;-84
2022/01/14 13:09:35;;;;;;;20.92;10.18;;;12.60;99.90;;;;;;5094580;28;20420;-81
2022/01/14 13:12:06;;;;;;;19.30;10.30;;;12.50;99.90;;;;;;5094913;28;20032;-83
2022/01/14 13:14:37;;;;;;;22.90;11.07;;;12.40;99.90;;;;;;5095491;28;20066;-86
2022/01/14 13:17:09;;;;;;;18.17;10.68;;;12.30;99.90;;;;;;5095846;28;20020;-85
2022/01/14 13:19:35;;;;;;;;;;;12.20;99.90;;;;;;5097188;28;20025;-87
2022/01/14 13:22:07;;;;;;;22.23;11.40;;;12.20;99.90;;;;;;5097174;28;19911;-85
2022/01/14 13:24:38;;;;;;;21.88;12.18;;;12.10;99.90;;;;;;5097109;28;20078;-85